createdAt,value
2022-08-17T00:00:00.412Z,6.40
2022-08-17T00:02:27.595Z,5.03
2022-08-17T00:04:55.650Z,8.25
2022-08-17T00:07:23.000Z,8.68
2022-08-17T00:09:49.941Z,8.68
2022-08-17T00:12:40.945Z,8.98
2022-08-17T00:15:05.837Z,6.80
2022-08-17T00:17:35.759Z,6.28
2022-08-17T00:20:04.224Z,6.47
2022-08-17T00:22:35.650Z,8.25
2022-08-17T00:25:07.353Z,7.07
2022-08-17T00:27:35.848Z,7.75
2022-08-17T00:30:04.071Z,7.18
2022-08-17T00:33:14.779Z,6.05
2022-08-17T00:35:27.818Z,7.13
2022-08-17T00:37:54.737Z,8.25
2022-08-17T00:40:21.772Z,7.03
2022-08-17T00:42:53.451Z,6.03
2022-08-17T00:45:21.030Z,7.07
2022-08-17T00:47:48.045Z,7.53
2022-08-17T00:50:17.401Z,6.70
2022-08-17T00:52:52.591Z,7.53
2022-08-17T00:55:20.093Z,6.40
2022-08-17T00:57:54.757Z,9.32
2022-08-17T01:00:30.238Z,4.88
2022-08-17T01:03:12.100Z,5.78
2022-08-17T01:05:42.482Z,6.45
2022-08-17T01:08:12.994Z,7.00
2022-08-17T01:10:58.921Z,7.32
2022-08-17T01:13:39.811Z,10.68
2022-08-17T01:16:24.496Z,5.88
2022-08-17T01:18:54.898Z,8.68
2022-08-17T01:21:33.403Z,6.32
2022-08-17T01:24:01.239Z,8.05
2022-08-17T01:26:29.780Z,7.70
2022-08-17T01:28:56.868Z,8.18
2022-08-17T01:31:30.314Z,7.00
2022-08-17T01:34:00.566Z,7.57
2022-08-17T01:36:28.959Z,7.53
2022-08-17T01:38:55.937Z,8.60
2022-08-17T01:41:24.459Z,10.65
2022-08-17T01:43:59.211Z,10.05
2022-08-17T01:46:31.023Z,9.07
2022-08-17T01:48:58.587Z,6.07
2022-08-17T01:51:32.916Z,7.28
2022-08-17T01:56:38.783Z,8.23
2022-08-17T01:59:06.450Z,8.23
2022-08-17T02:01:34.753Z,7.50
2022-08-17T02:04:02.274Z,9.63
2022-08-17T02:06:45.135Z,7.80
2022-08-17T02:09:29.494Z,8.98
2022-08-17T02:11:58.832Z,9.57
2022-08-17T02:14:26.398Z,9.45
2022-08-17T02:16:54.026Z,8.65
2022-08-17T02:19:22.037Z,8.85
2022-08-17T02:21:51.257Z,11.57
2022-08-17T02:24:59.778Z,15.15
2022-08-17T02:27:10.109Z,7.45
2022-08-17T02:29:37.462Z,8.52
2022-08-17T02:32:05.039Z,13.07
2022-08-17T02:34:32.783Z,9.20
2022-08-17T02:36:59.804Z,7.90
2022-08-17T02:39:26.814Z,8.63
2022-08-17T02:42:01.921Z,8.30
2022-08-17T02:44:38.845Z,7.43
2022-08-17T02:47:08.674Z,11.93
2022-08-17T02:49:35.957Z,8.60
2022-08-17T02:52:07.623Z,10.93
2022-08-17T02:54:41.251Z,9.98
2022-08-17T02:57:10.673Z,8.00
2022-08-17T02:59:39.373Z,9.23
2022-08-17T03:02:08.105Z,9.20
2022-08-17T03:04:35.548Z,8.55
2022-08-17T03:07:03.513Z,9.55
2022-08-17T03:09:30.718Z,8.55
2022-08-17T03:12:08.419Z,8.98
2022-08-17T03:14:41.768Z,9.70
2022-08-17T03:17:10.732Z,8.77
2022-08-17T03:19:42.916Z,12.13
2022-08-17T03:22:37.197Z,9.85
2022-08-17T03:24:57.938Z,8.43
2022-08-17T03:27:24.799Z,10.68
2022-08-17T03:29:51.650Z,10.65
2022-08-17T03:32:20.736Z,10.05
2022-08-17T03:34:48.138Z,8.50
2022-08-17T03:37:14.983Z,8.23
2022-08-17T03:39:42.888Z,8.95
2022-08-17T03:42:31.815Z,10.88
2022-08-17T03:45:00.895Z,10.13
2022-08-17T03:47:47.383Z,8.82
2022-08-17T03:50:33.680Z,8.13
2022-08-17T03:53:21.384Z,9.52
2022-08-17T03:56:06.752Z,8.00
2022-08-17T03:58:34.041Z,7.28
2022-08-17T04:01:01.478Z,7.95
2022-08-17T04:03:28.762Z,7.55
2022-08-17T04:05:55.927Z,9.85
2022-08-17T04:08:23.031Z,8.60
2022-08-17T04:10:50.083Z,9.38
2022-08-17T04:13:24.834Z,7.88
2022-08-17T04:15:53.036Z,9.18
2022-08-17T04:18:20.009Z,9.00
2022-08-17T04:20:47.175Z,15.43
2022-08-17T04:23:17.916Z,9.18
2022-08-17T04:25:50.448Z,10.10
2022-08-17T04:28:20.955Z,7.70
2022-08-17T04:30:48.160Z,10.43
2022-08-17T04:33:21.922Z,10.43
2022-08-17T04:35:52.526Z,8.07
2022-08-17T04:38:22.289Z,7.97
2022-08-17T04:41:08.273Z,8.77
2022-08-17T04:43:36.992Z,7.80
2022-08-17T04:46:07.447Z,7.50
2022-08-17T04:48:37.670Z,9.13
2022-08-17T04:51:16.755Z,8.32
2022-08-17T04:53:45.906Z,8.40
2022-08-17T04:56:21.131Z,10.43
2022-08-17T04:58:51.879Z,7.38
2022-08-17T05:01:23.581Z,10.57
2022-08-17T05:03:59.501Z,7.80
2022-08-17T05:06:28.331Z,7.78
2022-08-17T05:08:56.492Z,8.73
2022-08-17T05:11:26.277Z,10.68
2022-08-17T05:13:54.839Z,8.68
2022-08-17T05:16:23.612Z,11.02
2022-08-17T05:18:51.142Z,10.00
2022-08-17T05:21:19.528Z,9.52
2022-08-17T05:23:47.185Z,7.97
2022-08-17T05:26:26.803Z,6.85
2022-08-17T05:28:58.428Z,8.55
2022-08-17T05:31:28.298Z,9.93
2022-08-17T05:33:55.254Z,7.05
2022-08-17T05:36:41.564Z,7.07
2022-08-17T05:39:09.125Z,8.45
2022-08-17T05:41:43.090Z,8.07
2022-08-17T05:44:10.059Z,7.78
2022-08-17T05:46:41.053Z,7.93
2022-08-17T05:50:49.740Z,7.80
2022-08-17T05:53:40.883Z,6.80
2022-08-17T05:56:29.460Z,10.75
2022-08-17T05:59:34.913Z,10.60
2022-08-17T06:02:23.514Z,6.25
2022-08-17T06:05:16.984Z,8.10
2022-08-17T06:08:08.832Z,10.80
2022-08-17T06:10:53.941Z,7.45
2022-08-17T06:13:57.030Z,8.93
2022-08-17T06:16:34.442Z,15.30
2022-08-17T06:19:12.325Z,12.55
2022-08-17T06:21:43.740Z,10.98
2022-08-17T06:24:34.904Z,9.93
2022-08-17T06:27:12.713Z,7.22
2022-08-17T06:29:48.653Z,7.88
2022-08-17T06:32:17.240Z,6.57
2022-08-17T06:34:45.961Z,8.95
2022-08-17T06:37:42.106Z,7.45
2022-08-17T06:40:30.707Z,8.50
2022-08-17T06:43:34.188Z,9.60
2022-08-17T06:46:13.580Z,8.07
2022-08-17T06:49:11.631Z,6.50
2022-08-17T06:51:43.325Z,8.40
2022-08-17T06:54:24.051Z,7.00
2022-08-17T06:57:06.537Z,10.18
2022-08-17T06:59:58.078Z,8.30
2022-08-17T07:02:51.960Z,7.32
2022-08-17T07:05:24.411Z,7.55
2022-08-17T07:08:14.827Z,8.68
2022-08-17T07:10:50.843Z,7.05
2022-08-17T07:13:52.816Z,9.65
2022-08-17T07:16:46.867Z,10.57
2022-08-17T07:19:19.833Z,8.88
2022-08-17T07:21:55.084Z,7.25
2022-08-17T07:24:43.332Z,10.00
2022-08-17T07:27:12.021Z,9.68
2022-08-17T07:29:49.651Z,9.07
2022-08-17T07:32:22.942Z,8.25
2022-08-17T07:35:15.393Z,15.97
2022-08-17T07:37:54.075Z,6.88
2022-08-17T07:40:30.864Z,8.73
2022-08-17T07:43:11.591Z,6.85
2022-08-17T07:46:34.581Z,8.82
2022-08-17T07:49:03.303Z,6.57
2022-08-17T07:51:37.450Z,6.60
2022-08-17T07:54:23.565Z,6.97
2022-08-17T07:56:57.842Z,5.25
2022-08-17T07:59:27.234Z,8.50
2022-08-17T08:02:03.848Z,10.18
2022-08-17T08:07:32.148Z,6.97
2022-08-17T08:10:29.952Z,7.45
2022-08-17T08:13:23.573Z,7.50
2022-08-17T08:15:54.775Z,6.63
2022-08-17T08:18:45.927Z,6.97
2022-08-17T08:21:33.544Z,6.50
2022-08-17T08:24:20.786Z,9.55
2022-08-17T08:27:11.473Z,8.98
2022-08-17T08:30:02.980Z,9.45
2022-08-17T08:32:51.163Z,7.30
2022-08-17T08:35:44.705Z,5.40
2022-08-17T08:38:30.889Z,6.45
2022-08-17T08:41:04.846Z,6.15
2022-08-17T08:43:41.556Z,9.13
2022-08-17T08:46:44.090Z,7.15
2022-08-17T08:50:01.427Z,7.00
2022-08-17T08:52:40.713Z,10.93
2022-08-17T08:55:19.812Z,9.80
2022-08-17T08:57:54.297Z,12.27
2022-08-17T09:00:24.833Z,9.82
2022-08-17T09:03:03.033Z,11.52
2022-08-17T09:05:57.581Z,7.57
2022-08-17T09:09:11.751Z,6.05
2022-08-17T09:12:02.963Z,11.80
2022-08-17T09:14:56.817Z,9.85
2022-08-17T09:17:35.885Z,13.88
2022-08-17T09:20:27.539Z,8.48
2022-08-17T09:23:34.823Z,6.57
2022-08-17T09:26:17.159Z,9.63
2022-08-17T09:28:54.413Z,7.63
2022-08-17T09:31:46.403Z,4.70
2022-08-17T09:34:19.878Z,6.38
2022-08-17T09:37:03.532Z,6.60
2022-08-17T09:39:41.924Z,9.32
2022-08-17T09:42:33.122Z,5.78
2022-08-17T09:45:26.925Z,4.93
2022-08-17T09:48:12.597Z,4.88
2022-08-17T09:51:01.597Z,7.30
2022-08-17T09:53:33.215Z,6.50
2022-08-17T09:56:28.216Z,4.45
2022-08-17T09:59:38.203Z,6.35
2022-08-17T10:02:34.619Z,5.05
2022-08-17T10:05:13.662Z,5.65
2022-08-17T10:07:56.257Z,5.85
2022-08-17T10:10:33.113Z,5.63
2022-08-17T10:13:29.291Z,4.50
2022-08-17T10:16:10.886Z,7.10
2022-08-17T10:19:02.843Z,5.78
2022-08-17T10:22:00.952Z,4.50
2022-08-17T10:25:20.956Z,5.72
2022-08-17T10:27:49.095Z,6.78
2022-08-17T10:30:23.222Z,4.75
2022-08-17T10:35:50.702Z,4.10
2022-08-17T10:38:57.733Z,6.57
2022-08-17T10:41:31.332Z,4.38
2022-08-17T10:44:38.729Z,7.07
2022-08-17T10:47:11.891Z,4.93
2022-08-17T10:49:47.904Z,5.07
2022-08-17T10:52:21.987Z,7.57
2022-08-17T10:54:51.767Z,7.90
2022-08-17T10:57:34.131Z,6.43
2022-08-17T11:00:08.380Z,7.88
2022-08-17T11:02:52.014Z,4.15
2022-08-17T11:05:43.529Z,7.53
2022-08-17T11:08:22.995Z,5.28
2022-08-17T11:11:14.758Z,4.45
2022-08-17T11:14:08.989Z,6.05
2022-08-17T11:17:05.091Z,6.85
2022-08-17T11:20:01.189Z,8.18
2022-08-17T11:23:01.768Z,4.70
2022-08-17T11:25:47.321Z,6.75
2022-08-17T11:28:16.888Z,5.63
2022-08-17T11:30:53.972Z,6.00
2022-08-17T11:33:29.967Z,4.63
2022-08-17T11:36:06.419Z,5.63
2022-08-17T11:38:52.502Z,5.35
2022-08-17T11:41:27.437Z,6.43
2022-08-17T11:44:17.102Z,5.82
2022-08-17T11:47:29.711Z,4.20
2022-08-17T11:50:40.389Z,6.30
2022-08-17T11:53:08.891Z,4.75
2022-08-17T11:55:40.516Z,6.95
2022-08-17T11:58:31.317Z,10.13
2022-08-17T12:00:58.149Z,7.38
2022-08-17T12:03:31.873Z,5.53
2022-08-17T12:06:30.486Z,6.15
2022-08-17T12:09:15.802Z,5.28
2022-08-17T12:12:11.787Z,6.00
2022-08-17T12:17:42.823Z,5.05
2022-08-17T12:20:40.963Z,3.90
2022-08-17T12:23:39.512Z,5.63
2022-08-17T12:26:21.464Z,5.25
2022-08-17T12:28:53.143Z,4.45
2022-08-17T12:31:25.388Z,5.13
2022-08-17T12:33:53.097Z,4.65
2022-08-17T12:36:24.828Z,5.88
2022-08-17T12:39:00.207Z,9.27
2022-08-17T12:41:44.530Z,4.65
2022-08-17T12:44:12.182Z,4.75
2022-08-17T12:46:55.510Z,4.45
2022-08-17T12:49:35.559Z,5.05
2022-08-17T12:52:08.735Z,4.88
2022-08-17T12:54:42.020Z,5.27
2022-08-17T12:57:33.286Z,4.25
2022-08-17T13:00:10.794Z,4.03
2022-08-17T13:02:52.266Z,4.25
2022-08-17T13:05:28.359Z,5.57
2022-08-17T13:07:58.303Z,4.35
2022-08-17T13:10:33.244Z,6.38
2022-08-17T13:13:17.610Z,5.07
2022-08-17T13:15:54.977Z,5.32
2022-08-17T13:18:39.150Z,6.80
2022-08-17T13:21:12.548Z,4.00
2022-08-17T13:23:39.412Z,5.18
2022-08-17T13:26:16.199Z,3.38
2022-08-17T13:28:51.661Z,3.67
2022-08-17T13:31:30.384Z,3.92
2022-08-17T13:34:18.824Z,4.63
2022-08-17T13:36:46.926Z,4.05
2022-08-17T13:39:28.464Z,6.43
2022-08-17T13:41:56.111Z,3.90
2022-08-17T13:44:39.222Z,4.55
2022-08-17T13:47:17.519Z,4.18
2022-08-17T13:49:48.957Z,4.85
2022-08-17T13:52:41.615Z,6.82
2022-08-17T13:55:20.575Z,4.97
2022-08-17T13:58:06.546Z,4.15
2022-08-17T14:00:36.443Z,6.25
2022-08-17T14:03:04.744Z,6.55
2022-08-17T14:05:32.399Z,4.13
2022-08-17T14:08:06.683Z,5.10
2022-08-17T14:10:36.607Z,4.45
2022-08-17T14:13:04.561Z,3.92
2022-08-17T14:15:55.764Z,4.97
2022-08-17T14:18:31.186Z,4.55
2022-08-17T14:21:08.387Z,3.42
2022-08-17T14:23:36.757Z,4.82
2022-08-17T14:26:04.334Z,4.63
2022-08-17T14:28:32.038Z,3.88
2022-08-17T14:31:00.734Z,4.95
2022-08-17T14:33:28.945Z,4.85
2022-08-17T14:35:56.001Z,3.92
2022-08-17T14:38:23.243Z,3.85
2022-08-17T14:40:50.539Z,4.30
2022-08-17T14:43:17.853Z,5.80
2022-08-17T14:45:44.925Z,4.35
2022-08-17T14:48:11.986Z,3.88
2022-08-17T14:50:42.007Z,5.97
2022-08-17T14:53:11.907Z,3.17
2022-08-17T14:55:40.606Z,5.35
2022-08-17T14:58:08.991Z,5.28
2022-08-17T15:00:36.529Z,3.90
2022-08-17T15:03:04.508Z,3.92
2022-08-17T15:05:36.457Z,6.35
2022-08-17T15:08:04.800Z,4.63
2022-08-17T15:10:32.159Z,4.15
2022-08-17T15:12:59.447Z,5.15
2022-08-17T15:15:26.832Z,2.60
2022-08-17T15:17:53.814Z,4.15
2022-08-17T15:20:27.714Z,3.67
2022-08-17T15:22:56.304Z,3.17
2022-08-17T15:25:28.511Z,3.92
2022-08-17T15:27:56.040Z,3.35
2022-08-17T15:30:24.010Z,3.25
2022-08-17T15:32:54.939Z,2.95
2022-08-17T15:35:27.514Z,5.13
2022-08-17T15:37:56.694Z,2.97
2022-08-17T15:40:23.750Z,2.97
2022-08-17T15:42:51.261Z,5.47
2022-08-17T15:45:24.591Z,4.80
2022-08-17T15:47:52.664Z,4.43
2022-08-17T15:50:19.811Z,5.43
2022-08-17T15:52:47.602Z,4.40
2022-08-17T15:55:15.288Z,4.22
2022-08-17T15:57:42.154Z,3.78
2022-08-17T16:00:10.318Z,5.85
2022-08-17T16:03:20.200Z,4.72
2022-08-17T16:05:28.163Z,3.85
2022-08-17T16:10:34.794Z,4.15
2022-08-17T16:13:02.980Z,3.53
2022-08-17T16:15:31.562Z,5.00
2022-08-17T16:17:58.528Z,4.25
2022-08-17T16:20:25.390Z,5.03
2022-08-17T16:22:52.468Z,4.50
2022-08-17T16:25:48.454Z,4.70
2022-08-17T16:28:12.523Z,4.18
2022-08-17T16:30:39.674Z,5.43
2022-08-17T16:33:06.946Z,5.43
2022-08-17T16:35:33.980Z,5.28
2022-08-17T16:38:01.232Z,4.60
2022-08-17T16:40:33.125Z,6.15
2022-08-17T16:43:03.769Z,5.07
2022-08-17T16:45:36.549Z,4.07
2022-08-17T16:48:04.194Z,5.07
2022-08-17T16:50:32.365Z,4.60
2022-08-17T16:53:09.111Z,5.95
2022-08-17T16:55:36.205Z,5.07
2022-08-17T16:58:05.608Z,4.13
2022-08-17T17:00:33.865Z,7.20
2022-08-17T17:03:19.578Z,6.03
2022-08-17T17:06:13.752Z,5.45
2022-08-17T17:08:52.499Z,6.70
2022-08-17T17:11:31.302Z,5.75
2022-08-17T17:14:02.171Z,4.57
2022-08-17T17:16:28.898Z,5.68
2022-08-17T17:19:16.516Z,5.40
2022-08-17T17:21:59.127Z,4.45
2022-08-17T17:24:41.116Z,4.50
2022-08-17T17:27:35.629Z,3.75
2022-08-17T17:30:02.350Z,5.63
2022-08-17T17:32:52.430Z,4.78
2022-08-17T17:35:29.007Z,4.78
2022-08-17T17:37:58.134Z,5.50
2022-08-17T17:40:35.495Z,4.97
2022-08-17T17:43:34.921Z,6.40
2022-08-17T17:46:26.641Z,5.32
2022-08-17T17:48:50.910Z,4.45
2022-08-17T17:52:06.442Z,6.05
2022-08-17T17:54:18.230Z,6.55
2022-08-17T17:57:03.214Z,4.10
2022-08-17T17:59:44.175Z,5.57
2022-08-17T18:02:53.099Z,4.18
2022-08-17T18:05:32.394Z,6.97
2022-08-17T18:08:36.288Z,5.82
2022-08-17T18:11:33.062Z,3.97
2022-08-17T18:14:26.870Z,4.68
2022-08-17T18:16:56.604Z,7.95
2022-08-17T18:19:25.784Z,4.43
2022-08-17T18:22:00.717Z,5.90
2022-08-17T18:24:37.926Z,5.40
2022-08-17T18:27:21.058Z,4.40
2022-08-17T18:29:48.648Z,5.13
2022-08-17T18:32:20.820Z,6.03
2022-08-17T18:34:54.557Z,4.75
2022-08-17T18:37:32.880Z,4.82
2022-08-17T18:40:11.094Z,6.80
2022-08-17T18:42:38.789Z,4.82
2022-08-17T18:45:05.861Z,9.05
2022-08-17T18:47:32.652Z,4.72
2022-08-17T18:50:22.685Z,5.50
2022-08-17T18:52:50.636Z,5.20
2022-08-17T18:55:22.959Z,7.75
2022-08-17T18:57:57.468Z,4.72
2022-08-17T19:00:30.269Z,5.93
2022-08-17T19:03:16.849Z,6.47
2022-08-17T19:05:47.546Z,9.25
2022-08-17T19:08:35.010Z,4.60
2022-08-17T19:11:09.727Z,7.65
2022-08-17T19:13:51.451Z,5.90
2022-08-17T19:16:54.643Z,14.50
2022-08-17T19:19:28.714Z,7.57
2022-08-17T19:22:11.960Z,5.90
2022-08-17T19:24:47.891Z,6.25
2022-08-17T19:27:21.918Z,4.93
2022-08-17T19:30:08.154Z,5.05
2022-08-17T19:32:35.911Z,6.28
2022-08-17T19:35:05.942Z,8.32
2022-08-17T19:37:41.794Z,4.47
2022-08-17T19:40:48.841Z,8.15
2022-08-17T19:43:22.782Z,5.15
2022-08-17T19:46:17.817Z,4.07
2022-08-17T19:49:00.970Z,4.78
2022-08-17T19:51:46.770Z,6.72
2022-08-17T19:54:31.386Z,5.88
2022-08-17T19:57:32.723Z,6.15
2022-08-17T20:00:12.817Z,6.90
2022-08-17T20:02:51.621Z,5.38
2022-08-17T20:05:27.926Z,5.22
2022-08-17T20:08:02.215Z,6.07
2022-08-17T20:13:12.271Z,4.78
2022-08-17T20:15:42.941Z,5.20
2022-08-17T20:18:19.401Z,5.25
2022-08-17T20:21:01.277Z,4.95
2022-08-17T20:23:54.445Z,6.03
2022-08-17T20:26:57.972Z,6.05
2022-08-17T20:29:37.676Z,3.60
2022-08-17T20:32:16.812Z,7.22
2022-08-17T20:34:46.859Z,6.93
2022-08-17T20:37:13.727Z,5.00
2022-08-17T20:40:05.857Z,6.13
2022-08-17T20:42:33.963Z,5.28
2022-08-17T20:45:24.237Z,5.47
2022-08-17T20:48:22.154Z,4.82
2022-08-17T20:50:55.962Z,6.38
2022-08-17T20:53:47.545Z,6.93
2022-08-17T20:56:46.559Z,4.38
2022-08-17T20:59:25.996Z,5.00
2022-08-17T21:02:18.340Z,6.20
2022-08-17T21:04:52.942Z,5.32
2022-08-17T21:07:24.896Z,5.70
2022-08-17T21:09:52.323Z,7.25
2022-08-17T21:12:39.512Z,5.38
2022-08-17T21:15:20.903Z,5.13
2022-08-17T21:18:00.652Z,5.68
2022-08-17T21:21:01.258Z,7.68
2022-08-17T21:24:06.832Z,4.97
2022-08-17T21:26:50.491Z,5.55
2022-08-17T21:29:31.806Z,5.88
2022-08-17T21:31:59.722Z,6.47
2022-08-17T21:34:29.948Z,8.95
2022-08-17T21:37:23.463Z,8.98
2022-08-17T21:40:19.203Z,6.55
2022-08-17T21:42:50.544Z,6.40
2022-08-17T21:45:27.383Z,6.47
2022-08-17T21:48:17.470Z,5.22
2022-08-17T21:50:57.165Z,4.90
2022-08-17T21:53:47.678Z,6.45
2022-08-17T21:56:41.226Z,7.07
2022-08-17T21:59:16.443Z,5.95
2022-08-17T22:01:43.511Z,7.00
2022-08-17T22:04:11.563Z,6.03
2022-08-17T22:06:41.196Z,5.00
2022-08-17T22:09:28.737Z,7.05
2022-08-17T22:12:06.682Z,5.60
2022-08-17T22:14:51.658Z,5.43
2022-08-17T22:17:27.600Z,5.97
2022-08-17T22:20:16.826Z,7.28
2022-08-17T22:23:04.999Z,7.50
2022-08-17T22:25:38.290Z,7.80
2022-08-17T22:28:08.060Z,10.05
2022-08-17T22:30:58.142Z,7.07
2022-08-17T22:33:43.796Z,9.23
2022-08-17T22:36:24.828Z,7.53
2022-08-17T22:38:56.666Z,8.50
2022-08-17T22:41:41.273Z,10.02
2022-08-17T22:44:28.247Z,7.60
2022-08-17T22:47:02.877Z,7.68
2022-08-17T22:49:57.721Z,7.53
2022-08-17T22:52:58.824Z,7.43
2022-08-17T22:55:45.472Z,7.43
2022-08-17T22:58:34.717Z,6.53
2022-08-17T23:01:39.068Z,7.82
2022-08-17T23:04:09.442Z,7.25
2022-08-17T23:06:38.354Z,6.43
2022-08-17T23:09:07.105Z,6.28
2022-08-17T23:11:46.147Z,9.10
2022-08-17T23:14:19.684Z,6.85
2022-08-17T23:16:48.714Z,8.98
2022-08-17T23:19:18.326Z,8.40
2022-08-17T23:21:45.772Z,6.70
2022-08-17T23:24:21.653Z,5.55
2022-08-17T23:26:48.580Z,7.80
2022-08-17T23:29:15.544Z,7.05
2022-08-17T23:31:42.417Z,8.23
2022-08-17T23:34:12.668Z,7.75
2022-08-17T23:36:39.630Z,8.50
2022-08-17T23:39:07.142Z,5.68
2022-08-17T23:41:37.890Z,7.10
2022-08-17T23:44:06.396Z,6.40
2022-08-17T23:46:34.598Z,6.68
2022-08-17T23:49:01.615Z,6.00
2022-08-17T23:51:33.465Z,5.80
2022-08-17T23:54:12.631Z,5.93
2022-08-17T23:56:46.684Z,7.20
2022-08-17T23:59:19.449Z,6.03
